Time;durP1;ratioP1;P1;durP2;ratioP2;P2;SDS_P1;SDS_P2;PMS_P1;PMS_P2;Temp;Humidity;BMP_temperature;BMP_pressure;BME280_temperature;BME280_humidity;BME280_pressure;Samples;Min_cycle;Max_cycle;Signal;HPM_P1;HPM_P2
2024/04/17 00:01:39;;;;;;;0.90;0.80;;;6.20;99.60;;;;;;5417827;26;20324;-63
2024/04/17 00:04:05;;;;;;;0.97;0.97;;;6.20;99.90;;;;;;5418279;26;20210;-63
2024/04/17 00:06:31;;;;;;;0.87;0.87;;;6.20;99.90;;;;;;5418375;26;20717;-63
2024/04/17 00:08:57;;;;;;;1.27;0.90;;;6.30;99.60;;;;;;5418720;26;20700;-63
2024/04/17 00:11:22;;;;;;;0.97;0.97;;;6.30;99.60;;;;;;5418633;26;20259;-63
2024/04/17 00:13:48;;;;;;;0.83;0.83;;;6.20;99.80;;;;;;5418543;26;20214;-62
2024/04/17 00:16:13;;;;;;;0.80;0.73;;;6.20;99.90;;;;;;5418689;26;20594;-63
2024/04/17 00:18:39;;;;;;;0.67;0.67;;;6.20;99.90;;;;;;5419140;26;20213;-63
2024/04/17 00:21:05;;;;;;;1.57;0.90;;;6.00;99.90;;;;;;5418035;26;20239;-63
2024/04/17 00:23:30;;;;;;;0.67;0.67;;;6.00;99.90;;;;;;5418821;26;20257;-63
2024/04/17 00:25:56;;;;;;;0.90;0.90;;;6.10;99.90;;;;;;5418536;26;20567;-63
2024/04/17 00:28:24;;;;;;;0.93;0.93;;;6.20;99.90;;;;;;5418350;26;20611;-63
2024/04/17 00:30:49;;;;;;;0.80;0.80;;;6.10;99.90;;;;;;5417924;26;20229;-62
2024/04/17 00:33:15;;;;;;;1.43;1.17;;;6.00;99.90;;;;;;5417180;26;20257;-63
2024/04/17 00:35:41;;;;;;;0.97;0.97;;;6.00;99.90;;;;;;5417217;26;20705;-63
2024/04/17 00:38:07;;;;;;;0.60;0.60;;;6.00;99.90;;;;;;5418979;26;20219;-63
2024/04/17 00:40:33;;;;;;;1.23;0.90;;;6.10;99.90;;;;;;5417125;26;20300;-62
2024/04/17 00:43:03;;;;;;;1.02;1.00;;;6.00;99.90;;;;;;5417644;26;20220;-63
2024/04/17 00:45:41;;;;;;;0.50;0.50;;;6.00;99.90;;;;;;5418579;26;20221;-63
2024/04/17 00:48:12;;;;;;;0.88;0.88;;;6.00;99.80;;;;;;5418100;26;20215;-63
2024/04/17 00:50:40;;;;;;;0.47;0.47;;;5.70;99.90;;;;;;5417320;26;20285;-63
2024/04/17 00:53:08;;;;;;;0.93;0.73;;;5.60;99.90;;;;;;5417529;26;20259;-63
2024/04/17 00:55:36;;;;;;;0.88;0.88;;;5.70;99.90;;;;;;5418111;26;20221;-62
2024/04/17 00:58:02;;;;;;;0.70;0.70;;;5.80;99.90;;;;;;5418047;26;20297;-62
2024/04/17 01:00:28;;;;;;;0.80;0.67;;;5.90;99.90;;;;;;5417423;26;20240;-62
2024/04/17 01:02:54;;;;;;;0.60;0.60;;;5.90;99.90;;;;;;5418194;26;20497;-62
2024/04/17 01:05:20;;;;;;;0.50;0.50;;;5.90;99.70;;;;;;5418585;26;20914;-62
2024/04/17 01:07:45;;;;;;;0.70;0.70;;;6.00;99.70;;;;;;5418071;26;20212;-62
2024/04/17 01:10:11;;;;;;;0.83;0.83;;;6.00;99.80;;;;;;5417532;26;20228;-63
2024/04/17 01:12:36;;;;;;;0.60;0.60;;;5.90;99.90;;;;;;5417985;26;20725;-62
2024/04/17 01:15:09;;;;;;;0.60;0.60;;;5.90;99.90;;;;;;5421204;26;20261;-62
2024/04/17 01:17:36;;;;;;;0.50;0.50;;;5.80;99.90;;;;;;5421609;26;20309;-62
2024/04/17 01:20:02;;;;;;;0.50;0.50;;;5.70;99.80;;;;;;5420196;26;20705;-63
2024/04/17 01:22:28;;;;;;;0.50;0.45;;;5.60;99.90;;;;;;5421505;26;20222;-63
2024/04/17 01:24:53;;;;;;;0.40;0.40;;;5.50;99.90;;;;;;5421649;26;20309;-63
2024/04/17 01:27:21;;;;;;;0.40;0.40;;;5.40;99.90;;;;;;5421423;26;20225;-63
2024/04/17 01:29:48;;;;;;;0.60;0.60;;;5.50;99.90;;;;;;5435240;26;20281;-61
2024/04/17 01:32:16;;;;;;;0.47;0.47;;;5.50;99.90;;;;;;5457220;26;20294;-62
2024/04/17 01:34:41;;;;;;;0.50;0.50;;;5.30;99.90;;;;;;5456468;26;20226;-62
2024/04/17 01:37:07;;;;;;;0.60;0.60;;;5.10;99.90;;;;;;5456589;26;20226;-62
2024/04/17 01:39:33;;;;;;;0.40;0.40;;;5.10;99.90;;;;;;5456863;26;20227;-62
2024/04/17 01:41:59;;;;;;;0.40;0.40;;;5.20;99.90;;;;;;5456964;26;20440;-63
2024/04/17 01:44:25;;;;;;;0.50;0.50;;;5.30;99.90;;;;;;5457434;26;20619;-62
2024/04/17 01:46:50;;;;;;;3.60;0.70;;;5.30;99.90;;;;;;5456420;26;20211;-63
2024/04/17 01:49:16;;;;;;;0.40;0.40;;;5.40;99.90;;;;;;5456642;26;20327;-63
2024/04/17 01:51:41;;;;;;;0.50;0.50;;;5.30;99.90;;;;;;5456708;26;20702;-63
2024/04/17 01:54:07;;;;;;;0.40;0.40;;;5.10;99.70;;;;;;5457147;26;20273;-63
2024/04/17 01:56:33;;;;;;;0.40;0.40;;;5.00;99.70;;;;;;5456147;26;20211;-63
2024/04/17 01:59:00;;;;;;;0.40;0.40;;;5.00;99.90;;;;;;5456397;26;20218;-63
2024/04/17 02:01:26;;;;;;;0.55;0.47;;;5.10;99.90;;;;;;5456295;26;20819;-63
2024/04/17 02:03:51;;;;;;;0.50;0.50;;;5.20;99.90;;;;;;5457046;26;20261;-63
2024/04/17 02:06:18;;;;;;;0.50;0.40;;;5.20;99.90;;;;;;5456525;26;20332;-63
2024/04/17 02:08:43;;;;;;;0.50;0.50;;;5.20;99.90;;;;;;5456930;26;20215;-63
2024/04/17 02:11:11;;;;;;;0.40;0.40;;;5.30;99.70;;;;;;5456200;26;20235;-63
2024/04/17 02:13:36;;;;;;;0.40;0.40;;;5.30;99.60;;;;;;5456053;26;20216;-63
2024/04/17 02:16:07;;;;;;;0.50;0.50;;;5.30;99.20;;;;;;5457315;26;20652;-62
2024/04/17 02:18:33;;;;;;;0.52;0.50;;;5.20;99.30;;;;;;5457212;26;20270;-62
2024/04/17 02:21:02;;;;;;;0.60;0.50;;;5.20;99.40;;;;;;5456616;26;20226;-62
2024/04/17 02:23:28;;;;;;;0.32;0.32;;;5.30;99.40;;;;;;5453879;26;20231;-62
2024/04/17 02:26:00;;;;;;;0.47;0.47;;;5.20;99.00;;;;;;5457134;26;20214;-62
2024/04/17 02:28:26;;;;;;;0.40;0.40;;;5.20;99.50;;;;;;5456741;26;20214;-63
2024/04/17 02:30:52;;;;;;;0.40;0.40;;;5.10;99.30;;;;;;5456215;26;20277;-62
2024/04/17 02:33:19;;;;;;;0.93;0.60;;;5.10;99.40;;;;;;5455293;26;20480;-62
2024/04/17 02:35:45;;;;;;;0.50;0.50;;;5.10;99.70;;;;;;5457378;26;20440;-62
2024/04/17 02:38:11;;;;;;;0.47;0.40;;;5.10;99.60;;;;;;5456053;26;20214;-63
2024/04/17 02:40:43;;;;;;;0.40;0.40;;;5.10;99.60;;;;;;5450679;26;20465;-62
2024/04/17 02:43:10;;;;;;;0.40;0.40;;;4.90;99.40;;;;;;5419993;26;20226;-63
2024/04/17 02:45:36;;;;;;;0.40;0.40;;;4.90;99.50;;;;;;5435974;26;20854;-62
2024/04/17 02:48:02;;;;;;;1.33;0.50;;;5.00;99.60;;;;;;5436717;26;20231;-62
2024/04/17 02:50:28;;;;;;;0.40;0.40;;;4.80;99.60;;;;;;5438162;26;20261;-62
2024/04/17 02:52:54;;;;;;;0.40;0.40;;;4.80;99.90;;;;;;5439066;26;20334;-62
2024/04/17 02:55:19;;;;;;;0.40;0.40;;;4.90;99.70;;;;;;5425640;26;20713;-63
2024/04/17 02:57:45;;;;;;;0.40;0.40;;;5.00;99.60;;;;;;5417664;26;20732;-63
2024/04/17 03:00:11;;;;;;;0.60;0.50;;;5.00;99.50;;;;;;5418638;26;20228;-63
2024/04/17 03:02:37;;;;;;;0.40;0.40;;;5.10;99.50;;;;;;5419180;26;20284;-63
2024/04/17 03:05:03;;;;;;;0.40;0.40;;;5.10;99.30;;;;;;5419218;26;20216;-63
2024/04/17 03:07:28;;;;;;;0.40;0.40;;;5.10;99.30;;;;;;5388636;26;20249;-63
2024/04/17 03:09:54;;;;;;;0.40;0.40;;;4.90;99.50;;;;;;5419296;26;20695;-62
2024/04/17 03:12:20;;;;;;;0.40;0.40;;;5.00;99.80;;;;;;5419765;26;20219;-62
2024/04/17 03:14:45;;;;;;;0.40;0.40;;;5.10;99.60;;;;;;5418745;26;20250;-62
2024/04/17 03:17:11;;;;;;;0.40;0.40;;;5.10;99.50;;;;;;5419426;26;20211;-62
2024/04/17 03:19:36;;;;;;;0.40;0.40;;;5.20;99.50;;;;;;5419500;26;20243;-63
2024/04/17 03:22:02;;;;;;;0.60;0.60;;;5.10;99.40;;;;;;5419588;26;20294;-63
2024/04/17 03:24:28;;;;;;;0.40;0.40;;;5.10;99.50;;;;;;5419836;26;20253;-63
2024/04/17 03:26:54;;;;;;;0.50;0.50;;;5.10;99.50;;;;;;5419505;26;20215;-62
2024/04/17 03:29:20;;;;;;;0.50;0.50;;;5.20;99.50;;;;;;5419613;26;20223;-62
2024/04/17 03:31:45;;;;;;;0.50;0.50;;;5.10;99.50;;;;;;5385892;26;20292;-63
2024/04/17 03:34:11;;;;;;;1.00;1.00;;;4.90;99.40;;;;;;5415654;26;20258;-63
2024/04/17 03:36:37;;;;;;;1.53;0.40;;;4.90;99.80;;;;;;5414318;26;20251;-63
2024/04/17 03:39:02;;;;;;;0.50;0.50;;;4.90;99.90;;;;;;5415265;26;20711;-63
2024/04/17 03:41:28;;;;;;;0.47;0.47;;;5.00;99.70;;;;;;5415389;26;20208;-62
2024/04/17 03:43:54;;;;;;;0.40;0.40;;;5.10;99.50;;;;;;5415441;26;20349;-63
2024/04/17 03:46:19;;;;;;;0.40;0.40;;;5.10;99.30;;;;;;5415394;26;20249;-63
2024/04/17 03:48:45;;;;;;;0.50;0.50;;;5.10;99.40;;;;;;5415515;26;20706;-63
2024/04/17 03:51:10;;;;;;;1.33;0.53;;;5.10;99.40;;;;;;5415288;26;20227;-63
2024/04/17 03:53:36;;;;;;;0.50;0.50;;;5.10;99.30;;;;;;5415729;26;20216;-62
2024/04/17 03:56:02;;;;;;;0.50;0.40;;;5.10;99.20;;;;;;5415591;26;20555;-63
2024/04/17 03:58:27;;;;;;;0.40;0.40;;;5.00;99.10;;;;;;5415283;26;20310;-63
2024/04/17 04:00:53;;;;;;;0.60;0.60;;;4.90;99.30;;;;;;5414620;26;20629;-63
2024/04/17 04:03:18;;;;;;;0.37;0.33;;;4.90;99.40;;;;;;5415339;26;20212;-63
2024/04/17 04:05:44;;;;;;;0.30;0.30;;;4.70;99.60;;;;;;5415392;26;20211;-63
2024/04/17 04:08:10;;;;;;;0.50;0.50;;;4.70;99.90;;;;;;5415095;26;20212;-63
2024/04/17 04:10:36;;;;;;;0.40;0.40;;;4.70;99.90;;;;;;5414589;26;20606;-63
2024/04/17 04:13:01;;;;;;;0.40;0.40;;;4.60;99.90;;;;;;5415009;26;20763;-63
2024/04/17 04:15:27;;;;;;;0.50;0.50;;;4.70;99.90;;;;;;5415046;26;20257;-63
2024/04/17 04:17:53;;;;;;;0.50;0.50;;;4.80;99.90;;;;;;5414866;26;20544;-63
2024/04/17 04:20:18;;;;;;;0.40;0.40;;;4.90;99.90;;;;;;5414411;26;20220;-63
2024/04/17 04:22:44;;;;;;;0.50;0.50;;;4.90;99.90;;;;;;5414870;26;20526;-63
2024/04/17 04:25:09;;;;;;;1.00;0.50;;;5.00;99.70;;;;;;5414869;26;20207;-63
2024/04/17 04:27:35;;;;;;;0.50;0.50;;;5.10;99.70;;;;;;5414547;26;20208;-63
2024/04/17 04:30:01;;;;;;;0.40;0.40;;;5.10;99.70;;;;;;5414359;26;20697;-63
2024/04/17 04:32:26;;;;;;;1.23;0.40;;;5.10;99.80;;;;;;5414867;26;20241;-63
2024/04/17 04:34:52;;;;;;;0.40;0.40;;;5.20;99.70;;;;;;5414723;26;20634;-63
2024/04/17 04:37:17;;;;;;;0.40;0.40;;;5.20;99.80;;;;;;5414550;26;20223;-63
2024/04/17 04:39:43;;;;;;;0.50;0.50;;;5.10;99.80;;;;;;5414180;26;20227;-63
2024/04/17 04:42:08;;;;;;;0.40;0.40;;;5.10;99.50;;;;;;5414028;26;20258;-63
2024/04/17 04:44:34;;;;;;;0.80;0.63;;;5.00;99.70;;;;;;5414406;26;20231;-63
2024/04/17 04:47:01;;;;;;;0.40;0.40;;;5.00;99.90;;;;;;5415043;26;20207;-63
2024/04/17 04:49:29;;;;;;;0.80;0.50;;;5.10;99.90;;;;;;5417820;26;20271;-63
2024/04/17 04:51:55;;;;;;;0.40;0.40;;;5.00;99.90;;;;;;5417641;26;20315;-63
2024/04/17 04:54:21;;;;;;;0.40;0.40;;;5.10;99.90;;;;;;5418095;26;20279;-63
2024/04/17 04:56:47;;;;;;;0.52;0.52;;;5.10;99.90;;;;;;5417760;26;20254;-63
2024/04/17 04:59:12;;;;;;;0.50;0.50;;;5.10;99.90;;;;;;5417953;26;20228;-63
2024/04/17 05:01:38;;;;;;;0.70;0.70;;;5.10;99.90;;;;;;5417444;26;20697;-62
2024/04/17 05:04:04;;;;;;;0.40;0.40;;;5.20;99.90;;;;;;5417801;26;20214;-63
2024/04/17 05:06:29;;;;;;;0.60;0.50;;;5.30;99.90;;;;;;5386564;26;20258;-62
2024/04/17 05:08:55;;;;;;;0.70;0.70;;;5.30;99.90;;;;;;5417474;26;20217;-64
2024/04/17 05:11:20;;;;;;;0.67;0.67;;;5.30;99.90;;;;;;5417379;26;20280;-63
2024/04/17 05:13:46;;;;;;;0.57;0.57;;;5.30;99.90;;;;;;5417680;26;20637;-63
2024/04/17 05:16:12;;;;;;;0.50;0.50;;;5.40;99.80;;;;;;5417544;26;20215;-63
2024/04/17 05:18:37;;;;;;;0.80;0.80;;;5.50;99.60;;;;;;5417628;26;20228;-63
2024/04/17 05:21:03;;;;;;;0.50;0.50;;;5.50;99.70;;;;;;5417044;26;20231;-63
2024/04/17 05:23:29;;;;;;;0.40;0.40;;;5.40;99.70;;;;;;5417504;26;20216;-63
2024/04/17 05:25:54;;;;;;;0.40;0.40;;;5.50;99.70;;;;;;5417231;26;20215;-63
2024/04/17 05:28:20;;;;;;;0.50;0.50;;;5.50;99.70;;;;;;5417478;26;20705;-63
2024/04/17 05:30:58;;;;;;;0.63;0.50;;;5.50;99.50;;;;;;5417010;26;20231;-62
2024/04/17 05:33:24;;;;;;;0.50;0.50;;;5.50;99.50;;;;;;5417702;26;20312;-63
2024/04/17 05:35:49;;;;;;;0.40;0.40;;;5.50;99.50;;;;;;5417309;26;20729;-63
2024/04/17 05:38:15;;;;;;;0.70;0.70;;;5.60;99.40;;;;;;5417380;26;20209;-63
2024/04/17 05:40:44;;;;;;;0.40;0.40;;;5.60;99.60;;;;;;5416908;26;20227;-63
2024/04/17 05:43:10;;;;;;;0.50;0.50;;;5.50;99.90;;;;;;5417158;26;20697;-63
2024/04/17 05:45:35;;;;;;;0.50;0.50;;;5.60;99.90;;;;;;5417109;26;20215;-63
2024/04/17 05:48:01;;;;;;;0.90;0.50;;;5.70;99.80;;;;;;5417294;26;20254;-63
2024/04/17 05:50:27;;;;;;;0.43;0.43;;;5.80;99.50;;;;;;5416760;26;20267;-63
2024/04/17 05:52:52;;;;;;;0.40;0.40;;;5.70;99.40;;;;;;5417216;26;20224;-63
2024/04/17 05:55:18;;;;;;;0.73;0.70;;;5.70;99.60;;;;;;5417168;26;20227;-62
2024/04/17 05:57:44;;;;;;;0.50;0.50;;;5.70;99.70;;;;;;5417038;26;20313;-63
2024/04/17 06:00:10;;;;;;;0.90;0.47;;;5.80;99.80;;;;;;5415497;26;20891;-63
2024/04/17 06:02:35;;;;;;;0.40;0.40;;;6.00;99.30;;;;;;5416924;26;20231;-63
2024/04/17 06:05:01;;;;;;;0.53;0.50;;;6.00;98.90;;;;;;5417605;26;20258;-63
2024/04/17 06:07:27;;;;;;;6.00;4.60;;;5.90;98.80;;;;;;5417375;26;20217;-63
2024/04/17 06:09:52;;;;;;;2.60;2.03;;;5.60;98.80;;;;;;5416845;26;20235;-63
2024/04/17 06:12:18;;;;;;;1.23;1.23;;;5.50;99.10;;;;;;5416668;26;20211;-63
2024/04/17 06:14:44;;;;;;;0.40;0.40;;;5.40;99.10;;;;;;5416746;26;20285;-64
2024/04/17 06:17:09;;;;;;;0.70;0.70;;;5.30;99.30;;;;;;5416673;26;20783;-64
2024/04/17 06:19:35;;;;;;;0.97;0.60;;;5.40;99.60;;;;;;5416604;26;20360;-63
2024/04/17 06:22:01;;;;;;;0.60;0.60;;;5.40;99.40;;;;;;5416336;26;20506;-63
2024/04/17 06:24:27;;;;;;;0.40;0.40;;;5.50;99.30;;;;;;5416594;26;20219;-63
2024/04/17 06:26:52;;;;;;;0.97;0.80;;;5.40;99.30;;;;;;5416543;26;20449;-63
2024/04/17 06:29:18;;;;;;;0.60;0.60;;;5.40;99.20;;;;;;5416355;26;20743;-63
2024/04/17 06:31:43;;;;;;;0.43;0.43;;;5.40;98.70;;;;;;5416372;26;20220;-63
2024/04/17 06:34:09;;;;;;;0.40;0.40;;;5.30;98.70;;;;;;5416477;26;20258;-64
2024/04/17 06:36:35;;;;;;;0.40;0.40;;;5.20;98.70;;;;;;5416418;26;20263;-64
2024/04/17 06:39:01;;;;;;;0.40;0.40;;;4.90;98.80;;;;;;5436937;26;20242;-63
2024/04/17 06:41:27;;;;;;;0.30;0.30;;;4.70;99.20;;;;;;5450422;26;20318;-63
2024/04/17 06:43:52;;;;;;;0.40;0.40;;;4.70;99.70;;;;;;5452238;26;20697;-63
2024/04/17 06:46:18;;;;;;;0.40;0.40;;;4.70;99.90;;;;;;5448109;26;20210;-64
2024/04/17 06:48:43;;;;;;;0.40;0.40;;;4.90;99.90;;;;;;5416196;26;20257;-63
2024/04/17 06:51:09;;;;;;;0.40;0.40;;;5.20;99.50;;;;;;5431281;26;20615;-63
2024/04/17 06:53:34;;;;;;;0.60;0.60;;;5.40;99.10;;;;;;5444536;26;20222;-62
2024/04/17 06:56:00;;;;;;;0.60;0.60;;;5.40;99.00;;;;;;5451783;26;20299;-62
2024/04/17 06:58:26;;;;;;;1.53;1.47;;;5.60;99.20;;;;;;5451858;26;20315;-62
2024/04/17 07:00:52;;;;;;;1.53;0.80;;;5.80;98.90;;;;;;5451371;26;20258;-63
2024/04/17 07:03:18;;;;;;;0.70;0.70;;;5.90;98.60;;;;;;5451796;26;20229;-63
2024/04/17 07:05:44;;;;;;;0.60;0.60;;;6.10;98.40;;;;;;5451493;26;20649;-63
2024/04/17 07:08:10;;;;;;;1.70;0.80;;;6.10;97.90;;;;;;5420720;26;20269;-63
2024/04/17 07:10:36;;;;;;;5.30;0.97;;;6.00;97.80;;;;;;5415583;26;20582;-63
2024/04/17 07:13:01;;;;;;;0.93;0.80;;;6.00;97.70;;;;;;5415693;26;20211;-63
2024/04/17 07:15:27;;;;;;;0.87;0.60;;;5.90;97.80;;;;;;5416080;26;20221;-64
2024/04/17 07:17:52;;;;;;;0.60;0.60;;;5.90;97.80;;;;;;5415917;26;20214;-63
2024/04/17 07:20:18;;;;;;;0.77;0.63;;;5.80;98.00;;;;;;5415364;26;20295;-63
2024/04/17 07:22:44;;;;;;;2.00;0.70;;;5.80;98.00;;;;;;5415862;26;20334;-64
2024/04/17 07:25:11;;;;;;;3.37;2.23;;;5.70;97.90;;;;;;5433284;26;20355;-63
2024/04/17 07:27:36;;;;;;;1.63;1.52;;;5.50;98.20;;;;;;5451520;26;20250;-63
2024/04/17 07:30:02;;;;;;;3.70;2.10;;;5.40;98.30;;;;;;5451360;26;20225;-64
2024/04/17 07:32:28;;;;;;;3.17;2.63;;;5.40;98.70;;;;;;5451681;26;20251;-63
2024/04/17 07:34:53;;;;;;;2.57;2.37;;;5.50;99.00;;;;;;5451640;26;20442;-63
2024/04/17 07:37:19;;;;;;;2.23;1.93;;;5.70;99.00;;;;;;5451588;26;20225;-63
2024/04/17 07:39:44;;;;;;;1.73;1.57;;;5.90;98.80;;;;;;5451206;26;20314;-63
2024/04/17 07:42:10;;;;;;;2.33;0.90;;;6.00;98.30;;;;;;5451259;26;20612;-63
2024/04/17 07:44:36;;;;;;;0.80;0.80;;;6.00;97.70;;;;;;5451425;26;20579;-63
2024/04/17 07:47:01;;;;;;;2.23;0.80;;;5.80;97.70;;;;;;5451441;26;20280;-63
2024/04/17 07:49:27;;;;;;;1.37;1.17;;;5.80;98.00;;;;;;5451173;26;20272;-63
2024/04/17 07:51:52;;;;;;;1.47;0.70;;;6.40;99.00;;;;;;5432756;26;20278;-63
2024/04/17 07:54:18;;;;;;;0.90;0.80;;;7.10;98.00;;;;;;5415280;26;20216;-63
2024/04/17 07:56:44;;;;;;;0.50;0.50;;;7.60;96.70;;;;;;5415140;26;20215;-63
2024/04/17 07:59:09;;;;;;;0.50;0.50;;;7.90;95.20;;;;;;5414874;26;20793;-63
2024/04/17 08:01:35;;;;;;;1.23;1.13;;;7.90;94.60;;;;;;5415083;26;20220;-63
2024/04/17 08:04:01;;;;;;;0.50;0.50;;;7.60;94.70;;;;;;5415223;26;20210;-63
2024/04/17 08:06:26;;;;;;;1.53;0.60;;;7.50;95.10;;;;;;5415279;26;20222;-63
2024/04/17 08:08:52;;;;;;;0.40;0.40;;;7.50;95.20;;;;;;5415508;26;20256;-63
2024/04/17 08:11:18;;;;;;;0.50;0.50;;;7.40;95.50;;;;;;5423688;26;20697;-64
2024/04/17 08:13:43;;;;;;;0.40;0.40;;;7.20;95.40;;;;;;5426204;26;20261;-64
2024/04/17 08:16:09;;;;;;;1.23;0.50;;;7.20;95.60;;;;;;5444030;26;20467;-63
2024/04/17 08:18:35;;;;;;;0.50;0.50;;;7.20;95.60;;;;;;5449304;26;20316;-63
2024/04/17 08:21:00;;;;;;;0.60;0.60;;;7.40;96.20;;;;;;5414335;26;20254;-63
2024/04/17 08:23:26;;;;;;;0.40;0.40;;;7.70;95.80;;;;;;5442522;26;20226;-63
2024/04/17 08:25:52;;;;;;;0.60;0.60;;;7.90;95.30;;;;;;5454026;26;20300;-63
2024/04/17 08:28:18;;;;;;;1.20;1.10;;;8.10;94.70;;;;;;5454239;26;20261;-63
2024/04/17 08:30:44;;;;;;;0.98;0.98;;;8.60;94.90;;;;;;5454085;26;20265;-63
2024/04/17 08:33:09;;;;;;;1.37;0.70;;;9.40;93.20;;;;;;5454633;26;20214;-63
2024/04/17 08:35:38;;;;;;;0.97;0.50;;;10.10;92.20;;;;;;5454118;26;20488;-63
2024/04/17 08:38:04;;;;;;;1.13;0.93;;;10.60;91.00;;;;;;5453742;26;20320;-63
2024/04/17 08:40:30;;;;;;;1.20;1.10;;;10.70;90.80;;;;;;5450865;26;20455;-63
2024/04/17 08:43:02;;;;;;;1.60;1.03;;;11.70;89.60;;;;;;5453420;26;20443;-63
2024/04/17 08:45:32;;;;;;;1.40;1.30;;;12.90;86.20;;;;;;5426730;26;20271;-64
2024/04/17 08:48:00;;;;;;;0.60;0.60;;;13.80;82.90;;;;;;5416974;26;20494;-64
2024/04/17 08:50:30;;;;;;;0.30;0.30;;;14.20;81.00;;;;;;5417198;26;20467;-64
2024/04/17 08:52:58;;;;;;;0.40;0.40;;;14.60;79.70;;;;;;5417727;26;20461;-64
2024/04/17 08:55:28;;;;;;;0.30;0.30;;;14.10;75.00;;;;;;5417907;26;20853;-64
2024/04/17 08:57:54;;;;;;;0.40;0.40;;;12.70;77.10;;;;;;5417847;26;20971;-64
2024/04/17 09:00:24;;;;;;;0.47;0.40;;;12.20;80.30;;;;;;5417302;26;20468;-63
2024/04/17 09:02:56;;;;;;;1.33;0.80;;;11.80;81.60;;;;;;5417912;26;20485;-63
2024/04/17 09:05:23;;;;;;;0.50;0.40;;;11.30;82.20;;;;;;5417864;26;20441;-63
2024/04/17 09:07:50;;;;;;;1.02;0.70;;;10.80;83.40;;;;;;5417716;26;20486;-63
2024/04/17 09:10:17;;;;;;;0.88;0.88;;;10.30;83.60;;;;;;5417143;26;20231;-63
2024/04/17 09:12:44;;;;;;;0.60;0.60;;;10.00;85.70;;;;;;5442690;26;20322;-62
2024/04/17 09:15:13;;;;;;;0.60;0.47;;;9.70;88.40;;;;;;5453472;26;20915;-63
2024/04/17 09:17:39;;;;;;;0.98;0.50;;;9.60;90.10;;;;;;5453513;26;20215;-63
2024/04/17 09:20:05;;;;;;;0.40;0.40;;;9.30;90.20;;;;;;5425210;26;20281;-63
2024/04/17 09:22:30;;;;;;;0.30;0.30;;;9.00;90.30;;;;;;5417574;26;20235;-63
2024/04/17 09:24:56;;;;;;;0.70;0.70;;;8.70;90.50;;;;;;5417817;26;20211;-63
2024/04/17 09:27:22;;;;;;;0.50;0.50;;;8.50;90.60;;;;;;5417605;26;20692;-63
2024/04/17 09:29:48;;;;;;;0.83;0.60;;;8.30;90.90;;;;;;5417119;26;21065;-63
2024/04/17 09:32:15;;;;;;;0.50;0.50;;;8.00;91.20;;;;;;5418774;26;20776;-63
2024/04/17 09:34:40;;;;;;;0.63;0.60;;;7.80;91.80;;;;;;5417870;26;20257;-63
2024/04/17 09:37:09;;;;;;;0.63;0.63;;;7.70;91.80;;;;;;5418821;26;20215;-62
2024/04/17 09:39:34;;;;;;;1.00;0.90;;;7.50;92.20;;;;;;5420463;26;20235;-61
2024/04/17 09:42:05;;;;;;;0.93;0.50;;;7.20;92.30;;;;;;5421458;26;20890;-62
2024/04/17 09:44:37;;;;;;;0.40;0.40;;;6.60;92.90;;;;;;5421101;26;20274;-62
2024/04/17 09:47:08;;;;;;;0.35;0.35;;;6.10;93.60;;;;;;5448587;26;20616;-61
2024/04/17 09:49:34;;;;;;;0.40;0.40;;;5.90;94.60;;;;;;5456520;26;20227;-62
2024/04/17 09:52:02;;;;;;;1.02;0.70;;;5.90;95.00;;;;;;5448374;26;20398;-61
2024/04/17 09:54:28;;;;;;;0.40;0.40;;;5.80;95.50;;;;;;5421008;26;20222;-62
2024/04/17 09:56:55;;;;;;;0.65;0.40;;;5.70;95.40;;;;;;5420508;26;20264;-61
2024/04/17 09:59:22;;;;;;;0.50;0.40;;;5.50;95.70;;;;;;5421067;26;20321;-62
2024/04/17 10:01:50;;;;;;;0.60;0.60;;;5.40;96.30;;;;;;5420740;26;20230;-61
2024/04/17 10:04:16;;;;;;;0.50;0.50;;;5.40;96.90;;;;;;5422140;26;20215;-61
2024/04/17 10:06:42;;;;;;;0.43;0.43;;;5.60;97.10;;;;;;5420470;26;20707;-62
2024/04/17 10:09:21;;;;;;;0.98;0.50;;;5.70;96.80;;;;;;5420712;26;20214;-62
2024/04/17 10:11:50;;;;;;;1.77;0.60;;;5.80;96.80;;;;;;5420534;26;20222;-62
2024/04/17 10:14:17;;;;;;;0.65;0.65;;;5.80;96.50;;;;;;5453733;26;20577;-62
2024/04/17 10:16:43;;;;;;;0.70;0.70;;;5.70;96.60;;;;;;5439722;26;20245;-62
2024/04/17 10:19:09;;;;;;;0.50;0.50;;;5.70;96.80;;;;;;5434323;26;20221;-61
2024/04/17 10:21:38;;;;;;;0.50;0.50;;;5.60;96.70;;;;;;5456565;26;20221;-62
2024/04/17 10:24:08;;;;;;;0.43;0.43;;;5.60;96.80;;;;;;5456749;26;20652;-61
2024/04/17 10:26:43;;;;;;;0.88;0.50;;;5.60;97.10;;;;;;5456913;26;20233;-61
2024/04/17 10:29:23;;;;;;;0.50;0.50;;;5.70;97.30;;;;;;5456220;26;20679;-62
2024/04/17 10:32:00;;;;;;;1.20;0.60;;;5.80;97.30;;;;;;5455179;26;20218;-62
2024/04/17 10:34:41;;;;;;;2.25;0.70;;;6.00;96.90;;;;;;5456167;26;20217;-62
2024/04/17 10:37:09;;;;;;;1.70;1.60;;;6.10;96.60;;;;;;5456370;26;20273;-62
2024/04/17 10:39:37;;;;;;;1.75;1.65;;;6.30;96.40;;;;;;5455406;26;20285;-62
2024/04/17 10:42:04;;;;;;;1.10;1.00;;;6.60;96.20;;;;;;5420664;26;20211;-62
2024/04/17 10:44:31;;;;;;;1.13;1.13;;;7.20;95.20;;;;;;5420342;26;20222;-62
2024/04/17 10:47:04;;;;;;;1.00;0.90;;;7.70;94.40;;;;;;5420220;26;20266;-62
2024/04/17 10:49:37;;;;;;;1.27;1.27;;;8.50;93.90;;;;;;5419386;26;20228;-61
2024/04/17 10:52:03;;;;;;;1.10;1.10;;;8.90;91.90;;;;;;5418027;26;20219;-63
2024/04/17 10:54:29;;;;;;;1.00;1.00;;;9.20;91.70;;;;;;5418265;26;20216;-62
2024/04/17 10:56:56;;;;;;;2.00;1.27;;;9.10;91.00;;;;;;5419443;26;20294;-62
2024/04/17 10:59:28;;;;;;;1.10;1.00;;;8.80;90.90;;;;;;5418774;26;20336;-62
2024/04/17 11:01:54;;;;;;;1.35;1.15;;;8.50;91.80;;;;;;5418237;26;20215;-63
2024/04/17 11:04:19;;;;;;;1.53;1.43;;;8.50;92.40;;;;;;5417844;26;20328;-63
2024/04/17 11:06:45;;;;;;;1.07;0.97;;;8.70;92.50;;;;;;5418566;26;20315;-62
2024/04/17 11:09:12;;;;;;;2.00;1.80;;;8.80;93.10;;;;;;5418574;26;20219;-63
2024/04/17 11:11:37;;;;;;;4.10;1.70;;;9.20;91.50;;;;;;5418216;26;20458;-62
2024/04/17 11:14:12;;;;;;;2.43;2.00;;;9.60;91.10;;;;;;5448155;26;20544;-64
2024/04/17 11:16:37;;;;;;;2.57;2.00;;;9.80;90.10;;;;;;5454008;26;20210;-65
2024/04/17 11:19:03;;;;;;;1.87;1.70;;;10.00;89.00;;;;;;5416735;26;20551;-64
2024/04/17 11:21:29;;;;;;;2.10;1.67;;;10.20;86.70;;;;;;5417566;26;20328;-63
2024/04/17 11:23:54;;;;;;;5.00;1.83;;;10.30;85.80;;;;;;5416722;26;20297;-63
2024/04/17 11:26:20;;;;;;;1.63;1.53;;;10.30;84.80;;;;;;5450206;26;20879;-64
2024/04/17 11:28:46;;;;;;;1.63;1.53;;;10.50;87.40;;;;;;5450867;26;20486;-63
2024/04/17 11:31:13;;;;;;;2.37;1.90;;;10.50;85.10;;;;;;5451594;26;20227;-64
2024/04/17 11:33:39;;;;;;;4.80;2.30;;;10.30;81.90;;;;;;5453516;26;20862;-63
2024/04/17 11:36:15;;;;;;;3.42;2.03;;;10.00;82.90;;;;;;5453903;26;20261;-63
2024/04/17 11:38:45;;;;;;;3.50;2.13;;;9.90;86.70;;;;;;5453739;26;20612;-63
2024/04/17 11:41:13;;;;;;;1.30;1.20;;;9.90;85.20;;;;;;5453595;26;20290;-63
2024/04/17 11:43:43;;;;;;;2.93;2.07;;;9.80;88.10;;;;;;5453891;26;20210;-63
2024/04/17 11:46:13;;;;;;;1.75;1.65;;;10.10;89.20;;;;;;5453737;26;21015;-62
2024/04/17 11:48:39;;;;;;;1.87;1.77;;;10.50;85.60;;;;;;5447545;26;20621;-63
2024/04/17 11:51:05;;;;;;;3.90;1.57;;;10.60;84.70;;;;;;5446589;26;20589;-61
2024/04/17 11:53:30;;;;;;;2.17;2.07;;;10.70;82.90;;;;;;5446367;26;20579;-64
2024/04/17 11:55:56;;;;;;;2.20;2.10;;;10.80;83.50;;;;;;5449226;26;20266;-63
2024/04/17 11:58:22;;;;;;;2.80;1.63;;;10.70;82.70;;;;;;5448166;26;20264;-63
2024/04/17 12:00:49;;;;;;;2.53;2.20;;;10.60;82.90;;;;;;5448708;26;20234;-63
2024/04/17 12:03:14;;;;;;;2.08;1.73;;;10.40;81.60;;;;;;5451955;26;20872;-63
2024/04/17 12:05:40;;;;;;;2.13;1.90;;;10.20;85.80;;;;;;5453429;26;20218;-64
2024/04/17 12:08:07;;;;;;;1.60;1.10;;;10.00;83.70;;;;;;5453050;26;20210;-63
2024/04/17 12:10:33;;;;;;;2.47;2.25;;;9.90;84.10;;;;;;5452236;26;20231;-63
2024/04/17 12:12:58;;;;;;;2.00;1.90;;;10.10;86.50;;;;;;5452261;26;20837;-64
2024/04/17 12:15:24;;;;;;;5.90;2.03;;;10.50;82.60;;;;;;5451572;26;20629;-62
2024/04/17 12:17:49;;;;;;;5.90;1.80;;;10.70;85.80;;;;;;5452160;26;20291;-62
2024/04/17 12:20:15;;;;;;;2.20;1.17;;;10.60;80.60;;;;;;5421011;26;20339;-62
2024/04/17 12:22:41;;;;;;;1.80;1.57;;;10.50;82.50;;;;;;5416581;26;20219;-62
2024/04/17 12:27:50;;;;;;;6.93;2.30;;;10.60;84.50;;;;;;5415688;26;20253;-62
2024/04/17 12:30:16;;;;;;;2.87;1.63;;;10.70;82.70;;;;;;5415400;26;20505;-62
2024/04/17 12:32:42;;;;;;;1.30;1.20;;;10.40;79.30;;;;;;5416990;26;20330;-62
2024/04/17 12:35:08;;;;;;;1.63;1.53;;;10.20;83.20;;;;;;5416432;26;20275;-63
2024/04/17 12:37:38;;;;;;;2.70;1.85;;;10.10;81.60;;;;;;5417137;26;20290;-63
2024/04/17 12:40:05;;;;;;;1.25;1.15;;;10.20;84.40;;;;;;5416159;26;20274;-63
2024/04/17 12:42:30;;;;;;;1.30;1.20;;;10.40;85.50;;;;;;5416596;26;20271;-63
2024/04/17 12:44:56;;;;;;;2.13;1.40;;;10.70;84.60;;;;;;5417230;26;20293;-63
2024/04/17 12:47:21;;;;;;;4.83;1.30;;;10.80;81.90;;;;;;5417040;26;20246;-63
2024/04/17 12:49:47;;;;;;;3.03;1.53;;;11.00;83.40;;;;;;5416677;26;20239;-63
2024/04/17 12:52:13;;;;;;;1.60;1.40;;;11.00;80.70;;;;;;5416767;26;20291;-64
2024/04/17 12:54:38;;;;;;;6.27;1.60;;;11.20;81.60;;;;;;5416621;26;20254;-63